Time;durP1;ratioP1;P1;durP2;ratioP2;P2;SDS_P1;SDS_P2;PMS_P1;PMS_P2;Temp;Humidity;BMP_temperature;BMP_pressure;BME280_temperature;BME280_humidity;BME280_pressure;Samples;Min_cycle;Max_cycle;Signal;HPM_P1;HPM_P2
2021/08/26 00:07:07;;;;;;;12.68;8.48;;;16.50;99.90;;;15.30;86.16;101228.31;2565901;30;137765;-41
2021/08/26 00:09:35;;;;;;;14.13;9.07;;;16.50;99.90;;;15.24;85.97;101227.34;2568247;30;139216;-42
2021/08/26 00:12:04;;;;;;;17.05;9.43;;;16.50;99.90;;;15.24;86.45;101222.66;2567705;30;137097;-41
2021/08/26 00:14:31;;;;;;;13.80;8.85;;;16.50;99.90;;;15.22;86.76;101218.50;2567294;30;138905;-42
2021/08/26 00:16:58;;;;;;;13.95;9.25;;;16.50;99.90;;;15.26;87.36;101214.19;2565968;30;137782;-42
2021/08/26 00:19:27;;;;;;;14.25;9.40;;;16.40;99.90;;;15.24;87.54;101210.84;2577726;30;137732;-39
2021/08/26 00:21:55;;;;;;;15.00;9.52;;;16.50;99.90;;;15.23;87.14;101210.00;2567817;30;138225;-40
2021/08/26 00:24:23;;;;;;;16.17;9.50;;;16.50;99.90;;;15.16;87.48;101200.19;2568549;30;138300;-39
2021/08/26 00:26:50;;;;;;;13.98;9.18;;;16.40;99.90;;;15.19;88.20;101199.72;2570029;30;136776;-41
2021/08/26 00:29:18;;;;;;;13.15;8.80;;;16.40;99.90;;;15.19;88.68;101196.97;2569171;30;138369;-39
2021/08/26 00:31:48;;;;;;;15.20;9.20;;;16.40;99.90;;;15.17;89.14;101202.69;2569435;30;139784;-39
2021/08/26 00:34:15;;;;;;;18.15;9.45;;;16.40;99.90;;;15.14;89.05;101191.34;2567891;30;138323;-39
2021/08/26 00:36:44;;;;;;;;;;;16.40;99.90;;;15.07;88.96;101186.78;2568906;30;138070;-39
2021/08/26 00:39:11;;;;;;;15.43;8.88;;;16.30;99.90;;;15.06;89.93;101182.34;2568117;30;137293;-39
2021/08/26 00:41:40;;;;;;;15.02;9.10;;;16.30;99.90;;;15.04;91.01;101184.50;2567345;30;137450;-39
2021/08/26 00:44:07;;;;;;;13.30;8.73;;;16.30;99.90;;;15.05;91.54;101180.66;2568153;30;136778;-39
2021/08/26 00:46:37;;;;;;;15.15;9.45;;;16.30;99.90;;;15.01;92.04;101182.22;2566399;30;137248;-39
2021/08/26 00:49:12;;;;;;;13.88;9.05;;;16.30;99.90;;;14.98;92.44;101177.19;2568140;30;138264;-39
2021/08/26 00:51:41;;;;;;;14.55;8.70;;;16.20;99.90;;;14.99;92.94;101172.56;2571283;30;137666;-39
2021/08/26 00:54:08;;;;;;;14.75;8.95;;;16.20;99.90;;;14.94;93.09;101176.00;2568423;30;138049;-39
2021/08/26 00:56:37;;;;;;;15.20;9.07;;;16.20;99.90;;;14.92;93.56;101169.88;2569248;30;138348;-39
2021/08/26 00:59:08;;;;;;;15.57;8.55;;;16.20;99.90;;;14.91;94.00;101169.03;2567894;30;138127;-39
2021/08/26 01:02:02;;;;;;;16.92;8.27;;;16.20;99.90;;;14.90;94.03;101163.78;2568922;30;136872;-39
2021/08/26 01:04:35;;;;;;;12.40;8.18;;;16.20;99.90;;;14.91;94.45;101158.06;2567590;30;138433;-38
2021/08/26 01:07:29;;;;;;;11.82;7.82;;;16.20;99.90;;;14.87;94.75;101161.53;2569679;30;138537;-40
2021/08/26 01:10:09;;;;;;;13.23;7.85;;;16.10;99.90;;;14.87;95.08;101158.78;2569239;30;139032;-40
2021/08/26 01:12:39;;;;;;;10.43;6.95;;;16.10;99.90;;;14.85;95.33;101152.66;2569499;30;137405;-39
2021/08/26 01:15:08;;;;;;;10.07;6.35;;;16.10;99.90;;;14.87;95.60;101145.03;2569559;30;138908;-39
2021/08/26 01:17:36;;;;;;;10.80;6.40;;;16.10;99.90;;;14.92;95.68;101148.75;2569614;30;137600;-39
2021/08/26 01:20:06;;;;;;;9.43;6.10;;;16.10;99.90;;;14.87;95.80;101136.81;2566965;30;139162;-39
2021/08/26 01:22:35;;;;;;;9.65;6.00;;;16.10;99.90;;;14.87;96.34;101137.63;2566769;30;137518;-39
2021/08/26 01:25:05;;;;;;;10.45;5.90;;;16.10;99.90;;;14.91;96.55;101124.25;2569642;30;137449;-39
2021/08/26 01:27:45;;;;;;;8.07;5.00;;;16.10;99.90;;;14.90;96.79;101133.56;2569317;30;138564;-39
2021/08/26 01:30:18;;;;;;;8.30;5.28;;;16.10;99.90;;;14.93;96.66;101127.63;2569851;30;138337;-39
2021/08/26 01:32:50;;;;;;;6.38;4.30;;;16.10;99.90;;;14.89;96.80;101134.66;2567928;30;137607;-38
2021/08/26 01:35:28;;;;;;;8.30;4.40;;;16.10;99.90;;;14.88;97.53;101139.28;2571178;30;137040;-38
2021/08/26 01:37:56;;;;;;;7.90;4.40;;;16.10;99.90;;;14.91;97.82;101141.56;2568809;30;137442;-38
2021/08/26 01:40:43;;;;;;;9.50;4.38;;;16.10;99.90;;;14.99;98.33;101148.66;2569149;30;137808;-39
2021/08/26 01:43:12;;;;;;;7.05;2.78;;;16.20;99.90;;;14.94;97.36;101151.25;2568037;30;137856;-39
2021/08/26 01:45:43;;;;;;;3.92;2.15;;;16.20;99.90;;;14.84;94.93;101146.34;2568704;30;138472;-39
2021/08/26 01:48:19;;;;;;;5.18;2.08;;;16.10;99.90;;;14.74;94.47;101129.59;2571216;30;137556;-38
2021/08/26 01:50:48;;;;;;;6.43;2.00;;;16.00;99.90;;;14.65;94.68;101143.59;2569353;30;137147;-39
2021/08/26 01:53:17;;;;;;;5.63;1.65;;;15.90;99.90;;;14.55;94.99;101136.97;2570470;30;137540;-39
2021/08/26 01:55:48;;;;;;;4.88;2.35;;;15.80;99.90;;;14.53;96.07;101135.28;2568756;30;137829;-39
2021/08/26 01:58:15;;;;;;;5.25;1.88;;;15.80;99.90;;;14.44;95.29;101136.69;2567864;30;138811;-39
2021/08/26 02:00:45;;;;;;;3.63;1.70;;;15.80;99.90;;;14.40;96.12;101124.50;2569630;30;138211;-39
2021/08/26 02:03:12;;;;;;;6.28;1.90;;;15.70;99.90;;;14.43;96.33;101124.03;2565746;30;137202;-39
2021/08/26 02:05:40;;;;;;;8.00;1.90;;;15.70;99.90;;;14.38;96.10;101132.97;2569743;30;137760;-39
2021/08/26 02:08:07;;;;;;;6.38;2.08;;;15.70;99.90;;;14.39;96.28;101131.88;2569228;30;136729;-39
2021/08/26 02:10:35;;;;;;;4.95;2.10;;;15.70;99.90;;;14.36;96.43;101128.78;2569155;30;138375;-39
2021/08/26 02:13:02;;;;;;;8.05;2.55;;;15.70;99.90;;;14.37;96.94;101130.47;2569919;30;137080;-39
2021/08/26 02:15:30;;;;;;;4.95;2.13;;;15.70;99.90;;;14.41;97.09;101136.31;2567984;30;138527;-39
2021/08/26 02:17:59;;;;;;;6.13;2.35;;;15.70;99.90;;;14.43;97.27;101121.28;2569960;30;137279;-39
2021/08/26 02:20:27;;;;;;;4.20;2.00;;;15.70;99.90;;;14.34;96.42;101126.25;2568700;30;138261;-39
2021/08/26 02:22:54;;;;;;;6.30;2.00;;;15.60;99.90;;;14.31;97.43;101118.50;2570123;30;137527;-39
2021/08/26 02:25:22;;;;;;;5.50;1.95;;;15.60;99.90;;;14.33;97.67;101123.75;2568320;30;137228;-39
2021/08/26 02:27:49;;;;;;;4.95;2.33;;;15.60;99.90;;;14.31;98.07;101120.38;2568216;30;137475;-39
2021/08/26 02:30:17;;;;;;;7.53;2.33;;;15.60;99.90;;;14.32;98.24;101122.06;2570148;30;138100;-39
2021/08/26 02:32:45;;;;;;;6.05;2.45;;;15.60;99.90;;;14.29;97.89;101122.53;2568933;30;137425;-39
2021/08/26 02:35:12;;;;;;;9.38;2.67;;;15.60;99.90;;;14.30;98.58;101124.19;2569972;30;138291;-39
2021/08/26 02:37:40;;;;;;;5.53;2.20;;;15.60;99.90;;;14.32;98.57;101119.31;2566993;30;137544;-39
2021/08/26 02:40:08;;;;;;;5.68;2.20;;;15.60;99.90;;;14.30;98.81;101118.72;2570060;30;137125;-39
2021/08/26 02:42:36;;;;;;;8.05;3.22;;;15.60;99.90;;;14.24;99.27;101113.06;2570088;30;138272;-41
2021/08/26 02:45:04;;;;;;;5.85;2.80;;;15.60;99.90;;;14.31;99.34;101115.75;2569919;30;137076;-39
2021/08/26 02:47:32;;;;;;;4.50;2.13;;;15.60;99.90;;;14.30;99.59;101107.72;2569565;30;137420;-39
2021/08/26 02:49:59;;;;;;;5.47;2.35;;;15.60;99.90;;;14.30;99.17;101114.06;2567538;30;138859;-39
2021/08/26 02:52:27;;;;;;;5.90;2.42;;;15.60;99.90;;;14.36;98.56;101109.56;2569798;30;136899;-39
2021/08/26 02:54:54;;;;;;;5.22;2.15;;;15.60;99.90;;;14.34;98.22;101108.97;2568795;30;138362;-39
2021/08/26 02:57:22;;;;;;;5.00;2.40;;;15.60;99.90;;;14.33;98.58;101112.78;2568091;30;138363;-40
2021/08/26 02:59:49;;;;;;;8.35;3.13;;;15.60;99.90;;;14.33;98.91;101110.03;2569972;30;137519;-38
2021/08/26 03:02:17;;;;;;;5.35;2.42;;;15.60;99.90;;;14.30;98.52;101107.72;2571042;30;136684;-39
2021/08/26 03:04:44;;;;;;;6.35;2.85;;;15.60;99.90;;;14.36;98.10;101106.81;2569625;30;139123;-39
2021/08/26 03:07:12;;;;;;;7.00;2.78;;;15.60;99.90;;;14.31;97.85;101110.25;2570471;30;137400;-40
2021/08/26 03:09:39;;;;;;;5.18;2.40;;;15.60;99.90;;;14.24;97.42;101112.25;2568816;30;138444;-39
2021/08/26 03:12:07;;;;;;;6.30;2.65;;;15.50;99.90;;;14.21;97.95;101113.53;2569268;30;137702;-39
2021/08/26 03:14:34;;;;;;;;;;;15.50;99.90;;;14.27;97.55;101116.44;2568096;30;138320;-38
2021/08/26 03:17:02;;;;;;;6.47;2.15;;;15.50;99.90;;;14.26;97.78;101109.25;2569056;30;136860;-38
2021/08/26 03:19:29;;;;;;;6.68;2.70;;;15.50;99.90;;;14.27;98.09;101120.03;2568917;30;138303;-39
2021/08/26 03:21:57;;;;;;;7.78;2.70;;;15.60;99.90;;;14.27;97.44;101111.78;2566209;30;137504;-39
2021/08/26 03:24:24;;;;;;;6.03;2.33;;;15.50;99.90;;;14.22;97.82;101117.97;2568588;30;138540;-38
2021/08/26 03:26:52;;;;;;;4.25;2.00;;;15.50;99.90;;;14.20;97.67;101119.28;2568713;30;137741;-39
2021/08/26 03:29:20;;;;;;;6.72;2.58;;;15.50;99.90;;;14.17;98.28;101119.72;2569198;30;138353;-39
2021/08/26 03:31:47;;;;;;;4.53;2.00;;;15.50;99.90;;;14.14;98.48;101121.03;2569067;30;137585;-39
2021/08/26 03:34:14;;;;;;;6.80;2.55;;;15.40;99.90;;;14.14;98.87;101118.28;2567625;30;138457;-38
2021/08/26 03:36:42;;;;;;;6.00;2.38;;;15.50;99.90;;;14.16;98.95;101127.13;2570939;30;138500;-39
2021/08/26 03:39:10;;;;;;;6.88;2.67;;;15.50;99.90;;;14.17;99.41;101119.72;2571461;30;136981;-39
2021/08/26 03:41:37;;;;;;;6.47;2.53;;;15.50;99.90;;;14.20;99.19;101120.09;2569437;30;137506;-39
2021/08/26 03:44:05;;;;;;;5.15;2.47;;;15.50;99.90;;;14.20;99.58;101111.88;2569178;30;139108;-39
2021/08/26 03:46:32;;;;;;;4.07;1.90;;;15.50;99.90;;;14.24;99.44;101115.81;2569692;30;138654;-39
2021/08/26 03:49:00;;;;;;;3.67;2.00;;;15.50;99.90;;;14.21;99.04;101116.28;2567465;30;138547;-39
2021/08/26 03:51:28;;;;;;;7.32;2.55;;;15.50;99.90;;;14.17;99.34;101120.56;2567962;30;138072;-38
2021/08/26 03:53:55;;;;;;;6.10;2.55;;;15.50;99.90;;;14.16;99.42;101115.28;2568825;30;136831;-39
2021/08/26 03:56:23;;;;;;;5.75;2.53;;;15.40;99.90;;;14.16;99.72;101118.88;2568148;30;137005;-39
2021/08/26 03:58:50;;;;;;;4.22;2.13;;;15.50;99.90;;;14.17;99.53;101127.94;2568872;30;137822;-38
2021/08/26 04:01:18;;;;;;;6.38;2.28;;;15.50;99.90;;;14.14;99.79;101120.16;2569507;30;137405;-39
2021/08/26 04:03:45;;;;;;;;;;;15.40;99.90;;;14.14;99.33;101121.03;2569447;30;139036;-39
2021/08/26 04:06:13;;;;;;;6.22;2.15;;;15.40;99.90;;;14.18;99.24;101116.75;2568590;30;137345;-40
2021/08/26 04:08:40;;;;;;;8.80;3.08;;;15.40;99.90;;;14.14;98.88;101120.16;2568993;30;138544;-39
2021/08/26 04:11:08;;;;;;;;;;;15.40;99.90;;;14.15;97.27;101117.22;2564960;30;137391;-38
2021/08/26 04:13:36;;;;;;;8.50;2.60;;;15.40;99.90;;;14.08;97.11;101110.97;2569757;30;137418;-39
2021/08/26 04:16:03;;;;;;;6.75;2.40;;;15.40;99.90;;;14.09;97.54;101113.47;2567595;30;138611;-39
2021/08/26 04:18:31;;;;;;;7.68;2.83;;;15.40;99.90;;;14.10;97.27;101108.84;2571172;30;137275;-39
2021/08/26 04:20:59;;;;;;;11.00;2.60;;;15.40;99.90;;;14.05;94.15;101106.78;2568633;30;137339;-38
2021/08/26 04:23:27;;;;;;;8.07;2.50;;;15.40;99.90;;;14.07;95.13;101110.13;2568586;30;138621;-39
2021/08/26 04:25:54;;;;;;;5.78;2.20;;;15.40;99.90;;;14.05;95.37;101109.50;2569414;30;137575;-39
2021/08/26 04:28:22;;;;;;;6.95;2.38;;;15.30;99.90;;;14.10;95.77;101104.16;2567846;30;138562;-38
2021/08/26 04:30:49;;;;;;;9.15;2.38;;;15.40;99.90;;;14.02;92.38;101103.63;2567506;30;137321;-38
2021/08/26 04:33:17;;;;;;;5.57;1.80;;;15.30;99.90;;;14.00;88.95;101103.88;2568311;30;139119;-38
2021/08/26 04:35:44;;;;;;;7.85;1.63;;;15.30;99.90;;;13.88;84.13;101103.78;2566559;30;137485;-39
2021/08/26 04:38:12;;;;;;;5.97;1.73;;;15.20;99.90;;;13.85;85.82;101103.41;2570053;30;137871;-38
2021/08/26 04:40:39;;;;;;;4.95;1.50;;;15.20;99.90;;;13.76;87.78;101098.22;2569988;30;137118;-38
2021/08/26 04:43:07;;;;;;;6.97;1.80;;;15.10;99.90;;;13.70;88.28;101098.28;2569423;30;138315;-41
2021/08/26 04:45:34;;;;;;;6.95;1.77;;;15.00;99.90;;;13.64;87.52;101098.13;2569714;30;137594;-38
2021/08/26 04:48:02;;;;;;;4.53;1.55;;;15.00;99.90;;;13.57;89.53;101096.53;2569387;30;137701;-43
2021/08/26 04:50:30;;;;;;;4.50;1.55;;;14.90;99.90;;;13.49;90.54;101095.75;2569214;30;136671;-39
2021/08/26 04:52:57;;;;;;;7.10;1.67;;;14.80;99.90;;;13.49;91.39;101103.13;2567999;30;138970;-38
2021/08/26 04:55:25;;;;;;;5.32;1.83;;;14.80;99.90;;;13.47;92.38;101094.28;2568427;30;137594;-39
2021/08/26 04:57:52;;;;;;;6.90;1.80;;;14.80;99.90;;;13.44;93.33;101095.59;2565831;30;138587;-39
2021/08/26 05:00:20;;;;;;;7.13;2.20;;;14.80;99.90;;;13.47;94.30;101097.03;2569241;30;138090;-39
2021/08/26 05:02:49;;;;;;;7.35;2.17;;;14.70;99.90;;;13.51;95.33;101099.09;2569551;30;138430;-39
2021/08/26 05:05:17;;;;;;;6.88;2.40;;;14.80;99.90;;;13.53;95.92;101096.16;2567569;30;138373;-39
2021/08/26 05:07:44;;;;;;;6.65;2.22;;;14.80;99.90;;;13.54;96.55;101106.06;2567161;30;136855;-39
2021/08/26 05:10:12;;;;;;;6.63;2.40;;;14.80;99.90;;;13.58;96.85;101109.16;2568954;30;136658;-39
2021/08/26 05:12:39;;;;;;;7.55;2.50;;;14.90;99.90;;;13.63;97.16;101112.91;2568867;30;138477;-39
2021/08/26 05:15:07;;;;;;;5.72;2.20;;;14.90;99.90;;;13.62;96.66;101108.50;2569837;30;137752;-39
2021/08/26 05:17:35;;;;;;;10.10;2.80;;;14.90;99.90;;;13.65;96.71;101097.06;2569868;30;138626;-39
2021/08/26 05:20:03;;;;;;;9.80;3.35;;;14.90;99.90;;;13.68;96.75;101104.03;2568360;30;137355;-39
2021/08/26 05:22:30;;;;;;;7.70;2.67;;;14.90;99.90;;;13.73;96.59;101108.81;2568781;30;138381;-39
2021/08/26 05:24:58;;;;;;;6.13;2.38;;;15.00;99.90;;;13.81;95.94;101106.59;2568159;30;138290;-39
2021/08/26 05:27:25;;;;;;;;;;;15.10;99.90;;;13.81;95.73;101109.34;2566485;30;139740;-39
2021/08/26 05:29:53;;;;;;;6.45;2.60;;;15.10;99.90;;;13.80;95.83;101096.69;2568692;30;137791;-39
2021/08/26 05:32:21;;;;;;;7.80;2.22;;;15.10;99.90;;;13.80;96.15;101104.09;2568838;30;138412;-39
2021/08/26 05:34:48;;;;;;;9.65;2.53;;;15.10;99.90;;;13.83;95.72;101105.53;2565738;30;137554;-39
2021/08/26 05:37:16;;;;;;;7.03;2.35;;;15.10;99.90;;;13.84;95.02;101108.06;2567931;30;138448;-39
2021/08/26 05:39:43;;;;;;;7.47;2.40;;;15.10;99.90;;;13.87;93.17;101101.28;2568132;30;136921;-39
2021/08/26 05:42:11;;;;;;;7.32;2.75;;;15.10;99.90;;;13.85;93.00;101098.78;2569562;30;139075;-39
2021/08/26 05:44:38;;;;;;;8.35;2.60;;;15.10;99.90;;;13.90;93.83;101101.66;2569496;30;137173;-39
2021/08/26 05:47:06;;;;;;;6.63;1.88;;;15.10;99.90;;;13.94;94.38;101108.38;2565523;30;138157;-39
2021/08/26 05:49:33;;;;;;;9.27;2.60;;;15.20;99.90;;;14.01;93.78;101111.03;2569649;30;137293;-39
2021/08/26 05:52:01;;;;;;;7.63;2.40;;;15.20;99.90;;;14.05;93.54;101114.16;2568635;30;138375;-38
2021/08/26 05:54:28;;;;;;;11.82;2.45;;;15.30;99.90;;;14.14;92.64;101112.78;2569086;30;137556;-39
2021/08/26 05:56:58;;;;;;;6.63;2.50;;;15.30;99.90;;;14.14;92.13;101104.56;2569978;30;138304;-39
2021/08/26 05:59:26;;;;;;;6.38;1.80;;;15.40;99.90;;;14.19;91.40;101101.97;2568995;30;138794;-39
2021/08/26 06:01:54;;;;;;;8.43;2.03;;;15.40;99.90;;;14.21;91.15;101110.78;2570683;30;138559;-39
2021/08/26 06:04:22;;;;;;;8.00;2.45;;;15.40;99.90;;;14.20;90.00;101108.31;2570749;30;136811;-38
2021/08/26 06:06:49;;;;;;;7.30;2.50;;;15.40;99.90;;;14.24;90.34;101106.75;2568875;30;138620;-38
2021/08/26 06:09:17;;;;;;;6.50;2.25;;;15.40;99.90;;;14.28;91.09;101094.25;2569441;30;136641;-39
2021/08/26 06:11:45;;;;;;;7.00;2.25;;;15.40;99.90;;;14.33;90.49;101099.06;2569901;30;137510;-39
2021/08/26 06:14:13;;;;;;;7.10;1.98;;;15.50;99.90;;;14.31;90.59;101092.94;2569030;30;136973;-39
2021/08/26 06:16:40;;;;;;;8.38;2.42;;;15.50;99.90;;;14.39;90.11;101106.38;2569883;30;138170;-39
2021/08/26 06:19:08;;;;;;;6.18;2.05;;;15.60;99.90;;;14.47;89.58;101107.97;2569531;30;136743;-40
2021/08/26 06:21:35;;;;;;;7.72;2.15;;;15.60;99.90;;;14.53;90.03;101107.03;2575410;30;139423;-40
2021/08/26 06:24:06;;;;;;;6.20;2.15;;;15.70;99.90;;;14.52;89.86;101111.66;2568775;30;137033;-41
2021/08/26 06:26:37;;;;;;;6.93;2.25;;;15.70;99.90;;;14.53;89.39;101116.09;2568670;30;138217;-41
2021/08/26 06:29:04;;;;;;;8.18;2.55;;;15.70;99.90;;;14.60;90.62;101109.69;2568155;30;136917;-41
2021/08/26 06:31:32;;;;;;;6.97;2.35;;;15.80;99.90;;;14.65;89.72;101109.81;2568324;30;137143;-41
2021/08/26 06:34:00;;;;;;;5.65;2.17;;;15.80;99.90;;;14.73;90.66;101111.44;2569124;30;136860;-41
2021/08/26 06:36:28;;;;;;;8.20;2.40;;;15.90;99.90;;;14.76;90.66;101113.72;2565581;30;138423;-41
2021/08/26 06:38:58;;;;;;;7.50;2.50;;;15.90;99.90;;;14.84;90.16;101118.88;2568057;30;138285;-41
2021/08/26 06:41:26;;;;;;;7.32;2.38;;;16.00;99.90;;;14.86;90.22;101111.22;2567847;30;138238;-43
2021/08/26 06:43:53;;;;;;;;;;;16.00;99.90;;;14.92;90.87;101115.78;2565029;30;136973;-41
2021/08/26 06:46:21;;;;;;;7.35;2.33;;;16.10;99.90;;;14.94;89.60;101112.81;2568568;30;137583;-41
2021/08/26 06:48:50;;;;;;;8.85;2.33;;;16.10;99.90;;;15.00;89.38;101100.88;2568447;30;137371;-41
2021/08/26 06:51:18;;;;;;;9.63;2.60;;;16.10;99.90;;;15.06;87.66;101108.16;2567632;30;137822;-41
2021/08/26 06:53:47;;;;;;;9.63;2.33;;;16.20;99.90;;;15.19;89.31;101114.53;2567402;30;136908;-41
2021/08/26 06:56:15;;;;;;;6.38;2.47;;;16.30;99.90;;;15.23;87.97;101115.72;2567748;30;138581;-41
2021/08/26 06:58:43;;;;;;;8.95;2.65;;;16.30;99.90;;;15.26;88.02;101109.75;2567227;30;137588;-42
2021/08/26 07:01:11;;;;;;;;;;;16.40;99.90;;;15.36;86.97;101111.91;2569500;30;138308;-42
2021/08/26 07:03:38;;;;;;;7.38;2.30;;;16.40;99.90;;;15.50;88.21;101115.28;2567399;30;137237;-44
2021/08/26 07:06:06;;;;;;;7.35;2.30;;;16.50;99.90;;;15.56;87.57;101119.00;2567040;30;138035;-41
2021/08/26 07:08:34;;;;;;;8.07;2.67;;;16.60;99.90;;;15.56;86.55;101114.31;2568078;30;136813;-41
2021/08/26 07:11:01;;;;;;;8.18;2.55;;;16.60;99.90;;;15.59;85.53;101107.50;2567976;30;137699;-41
2021/08/26 07:13:29;;;;;;;7.65;2.58;;;16.60;99.90;;;15.82;85.50;101113.00;2567888;30;137680;-41
2021/08/26 07:15:56;;;;;;;8.00;2.33;;;16.80;99.90;;;16.17;84.02;101105.78;2567452;30;137359;-41
2021/08/26 07:18:24;;;;;;;10.02;2.88;;;17.00;99.90;;;16.42;84.31;101114.81;2567441;30;137354;-41
2021/08/26 07:20:52;;;;;;;11.73;2.80;;;17.20;99.90;;;16.56;83.10;101115.34;2567848;30;139150;-41
2021/08/26 07:23:20;;;;;;;9.50;2.85;;;17.40;99.90;;;16.78;82.12;101107.22;2567680;30;137481;-43
2021/08/26 07:25:49;;;;;;;11.02;2.63;;;17.60;99.90;;;16.91;80.72;101117.94;2568040;30;139137;-41
2021/08/26 07:28:16;;;;;;;8.13;2.70;;;17.80;99.90;;;16.82;79.29;101109.25;2568396;30;136970;-40
2021/08/26 07:30:44;;;;;;;9.00;2.50;;;17.80;99.90;;;16.70;78.64;101113.97;2569232;30;139251;-42
2021/08/26 07:33:11;;;;;;;7.90;2.33;;;17.80;99.90;;;16.57;79.20;101109.59;2568963;30;137465;-41
2021/08/26 07:35:39;;;;;;;10.63;2.90;;;17.70;99.90;;;16.37;78.27;101123.78;2567875;30;139294;-41
2021/08/26 07:38:06;;;;;;;9.18;2.53;;;17.50;99.90;;;16.20;78.46;101119.06;2568993;30;137593;-42
2021/08/26 07:40:34;;;;;;;;;;;17.40;99.90;;;16.17;78.78;101118.72;2567127;30;136703;-41
2021/08/26 07:43:01;;;;;;;7.55;2.40;;;17.30;99.90;;;16.24;80.22;101116.66;2568330;30;137080;-41
2021/08/26 07:45:30;;;;;;;10.85;2.90;;;17.30;99.90;;;16.35;80.11;101117.69;2568476;30;137093;-41
2021/08/26 07:47:57;;;;;;;9.00;2.40;;;17.40;99.90;;;16.48;78.94;101119.34;2566543;30;138100;-41
2021/08/26 07:50:25;;;;;;;7.18;2.17;;;17.40;99.90;;;16.58;79.71;101104.94;2567307;30;138110;-41
2021/08/26 07:52:52;;;;;;;8.43;2.75;;;17.50;99.90;;;16.58;77.62;101107.69;2566649;30;137832;-41
2021/08/26 07:55:20;;;;;;;6.63;2.20;;;17.60;99.90;;;16.53;77.62;101101.00;2567214;30;139123;-41
2021/08/26 07:57:47;;;;;;;7.07;2.28;;;17.60;99.90;;;16.58;80.02;101104.94;2566749;30;137474;-41
2021/08/26 08:00:15;;;;;;;;;;;17.60;99.90;;;16.56;78.01;101098.84;2568601;30;138130;-44
2021/08/26 08:02:43;;;;;;;14.18;2.65;;;17.70;99.90;;;16.62;78.78;101103.34;2569020;30;136839;-41
2021/08/26 08:05:11;;;;;;;;;;;17.70;99.90;;;16.66;78.53;101104.53;2568016;30;139018;-41
2021/08/26 08:07:42;;;;;;;5.93;1.83;;;17.70;99.90;;;16.74;77.81;101095.03;2566580;30;138286;-41
2021/08/26 08:10:10;;;;;;;7.32;2.10;;;17.70;99.90;;;16.83;77.97;101105.41;2567160;30;138433;-44
2021/08/26 08:12:38;;;;;;;6.10;1.60;;;17.80;99.90;;;16.91;76.91;101095.06;2568316;30;138483;-42
2021/08/26 08:15:07;;;;;;;6.05;1.60;;;17.90;99.90;;;16.95;77.84;101090.72;2566843;30;139401;-41
2021/08/26 08:17:36;;;;;;;5.82;1.98;;;17.90;99.90;;;16.97;76.83;101096.81;2569085;30;137769;-41
2021/08/26 08:20:07;;;;;;;7.20;1.67;;;18.00;99.90;;;16.88;74.83;101093.66;2566986;30;137971;-41
2021/08/26 08:22:35;;;;;;;6.63;1.77;;;17.90;99.90;;;16.80;74.68;101094.88;2569861;30;137388;-41
2021/08/26 08:25:06;;;;;;;8.38;1.77;;;17.90;99.90;;;16.77;77.35;101100.91;2567710;30;138146;-41
2021/08/26 08:27:33;;;;;;;5.85;1.52;;;17.80;99.90;;;16.74;76.89;101106.06;2569337;30;137495;-41
2021/08/26 08:30:03;;;;;;;5.97;1.95;;;17.80;99.90;;;16.69;76.84;101087.50;2567895;30;138114;-41
2021/08/26 08:32:32;;;;;;;9.95;1.83;;;17.80;99.90;;;16.70;77.08;101100.19;2568570;30;137481;-41
2021/08/26 08:35:00;;;;;;;7.25;1.67;;;17.80;99.90;;;16.65;77.91;101098.19;2565327;30;137309;-41
2021/08/26 08:37:27;;;;;;;;;;;17.70;99.90;;;16.74;78.47;101100.53;2567982;30;137918;-41
2021/08/26 08:39:55;;;;;;;5.93;1.50;;;17.80;99.90;;;16.85;78.61;101107.06;2567347;30;137299;-41
2021/08/26 08:42:24;;;;;;;8.07;2.30;;;17.90;99.90;;;16.89;76.64;101103.59;2569052;30;137136;-41
2021/08/26 08:44:51;;;;;;;5.95;1.60;;;17.90;99.90;;;16.94;76.87;101102.81;2567618;30;138270;-44
2021/08/26 08:47:19;;;;;;;11.48;2.33;;;17.90;99.90;;;17.00;77.35;101093.63;2567295;30;137799;-41
2021/08/26 08:49:50;;;;;;;;;;;18.00;99.90;;;17.02;74.96;101102.47;2567859;30;137392;-41
2021/08/26 08:52:19;;;;;;;5.80;1.90;;;18.10;99.90;;;17.02;75.94;101104.38;2568784;30;137337;-41
2021/08/26 08:54:47;;;;;;;6.53;2.08;;;18.10;99.90;;;17.16;78.06;101102.13;2568228;30;137213;-41
2021/08/26 08:57:14;;;;;;;;;;;18.10;99.90;;;17.23;75.48;101091.75;2565119;30;137460;-41
2021/08/26 08:59:42;;;;;;;9.18;1.95;;;18.20;99.90;;;17.23;76.16;101091.75;2566873;30;138483;-44
2021/08/26 09:02:10;;;;;;;5.15;1.60;;;18.20;99.90;;;17.24;75.51;101093.47;2567039;30;137370;-41
2021/08/26 09:04:58;;;;;;;7.22;1.90;;;18.20;99.90;;;17.22;73.86;101090.09;2566913;30;138279;-41
2021/08/26 09:07:34;;;;;;;7.03;1.67;;;18.20;99.90;;;17.24;73.72;101094.28;2568511;30;138676;-41
2021/08/26 09:10:05;;;;;;;6.15;1.50;;;18.30;99.90;;;17.19;74.27;101094.19;2568648;30;138144;-42
2021/08/26 09:12:41;;;;;;;6.40;1.55;;;18.30;99.90;;;17.09;76.08;101089.34;2568025;30;136843;-41
2021/08/26 09:15:10;;;;;;;7.25;1.83;;;18.20;99.90;;;17.04;75.78;101097.53;2567516;30;139251;-41
2021/08/26 09:17:39;;;;;;;4.88;1.33;;;18.10;99.90;;;16.91;76.07;101086.78;2568276;30;136951;-41
2021/08/26 09:20:11;;;;;;;6.00;1.77;;;18.10;99.90;;;16.89;76.37;101092.56;2566775;30;137676;-41
2021/08/26 09:22:38;;;;;;;5.00;1.80;;;18.00;99.90;;;16.92;76.54;101092.06;2568178;30;138020;-41
2021/08/26 09:25:09;;;;;;;5.38;1.50;;;18.00;99.90;;;17.05;77.51;101101.13;2567045;30;138203;-41
2021/08/26 09:27:41;;;;;;;5.63;1.90;;;18.10;99.90;;;17.02;74.63;101098.84;2569783;30;137698;-41
2021/08/26 09:30:13;;;;;;;3.75;1.35;;;18.10;99.90;;;17.13;75.84;101099.88;2568284;30;138618;-42
2021/08/26 09:32:47;;;;;;;6.85;1.80;;;18.10;99.90;;;17.24;76.20;101093.47;2568173;30;137615;-41
2021/08/26 09:35:21;;;;;;;8.25;1.80;;;18.30;99.90;;;17.42;75.46;101105.28;2569305;30;138334;-41
2021/08/26 09:37:56;;;;;;;5.85;1.92;;;18.40;99.90;;;17.42;75.94;101105.28;2569227;30;137292;-41
2021/08/26 09:40:31;;;;;;;5.72;1.58;;;18.40;99.90;;;17.51;76.78;101106.56;2568965;30;138170;-42
2021/08/26 09:43:05;;;;;;;7.50;2.10;;;18.50;99.90;;;17.57;77.07;101108.31;2567918;30;136875;-41
2021/08/26 09:45:36;;;;;;;7.30;2.00;;;18.50;99.90;;;17.68;76.16;101099.06;2568814;30;138548;-42
2021/08/26 09:48:04;;;;;;;7.15;2.33;;;18.60;99.90;;;17.78;75.63;101097.56;2565641;30;137078;-41
2021/08/26 09:50:50;;;;;;;4.30;1.73;;;18.70;99.90;;;18.10;74.63;101094.16;2568298;30;137930;-41
2021/08/26 09:53:19;;;;;;;6.13;2.15;;;18.80;99.90;;;18.21;71.21;101095.94;2566918;30;138472;-41
2021/08/26 09:55:51;;;;;;;6.18;1.70;;;19.10;99.90;;;18.58;71.16;101097.19;2566318;30;136836;-41
2021/08/26 09:58:23;;;;;;;6.47;1.83;;;19.30;99.90;;;18.62;68.42;101091.97;2568096;30;136837;-41
2021/08/26 10:01:07;;;;;;;7.80;1.90;;;19.50;99.90;;;18.71;71.70;101092.34;2569101;30;138313;-42
2021/08/26 10:03:36;;;;;;;5.15;1.80;;;19.60;99.90;;;19.14;68.74;101095.25;2569288;30;136769;-42
2021/08/26 10:06:03;;;;;;;5.60;2.05;;;19.80;99.90;;;19.43;69.14;101092.16;2568435;30;138106;-42
2021/08/26 10:08:33;;;;;;;7.30;2.17;;;20.10;99.90;;;19.37;66.96;101097.66;2568370;30;137485;-43
2021/08/26 10:11:03;;;;;;;7.22;1.70;;;20.20;99.90;;;19.28;69.04;101096.47;2567834;30;139375;-41
2021/08/26 10:13:31;;;;;;;3.53;1.50;;;20.20;99.90;;;19.21;68.86;101098.63;2567479;30;138294;-42
2021/08/26 10:15:59;;;;;;;7.82;1.88;;;20.10;99.90;;;19.07;70.70;101103.75;2567826;30;138303;-41
2021/08/26 10:18:29;;;;;;;7.72;2.00;;;20.10;99.90;;;18.90;73.29;101109.38;2568153;30;138234;-41
2021/08/26 10:20:58;;;;;;;6.53;2.33;;;19.80;99.90;;;18.60;75.24;101105.22;2568106;30;137142;-41